sensor_id;sensor_type;location;lat;lon;timestamp;temperature;humidity
69189;DHT22;56302;52.322;5.926;2022-07-22T00:02:24;16.10;89.60
69189;DHT22;56302;52.322;5.926;2022-07-22T00:04:50;16.10;89.10
69189;DHT22;56302;52.322;5.926;2022-07-22T00:07:15;16.10;88.90
69189;DHT22;56302;52.322;5.926;2022-07-22T00:09:41;16.00;89.50
69189;DHT22;56302;52.322;5.926;2022-07-22T00:12:07;16.00;89.70
69189;DHT22;56302;52.322;5.926;2022-07-22T00:14:33;16.00;89.50
69189;DHT22;56302;52.322;5.926;2022-07-22T00:16:58;16.10;89.20
69189;DHT22;56302;52.322;5.926;2022-07-22T00:19:24;16.10;88.90
69189;DHT22;56302;52.322;5.926;2022-07-22T00:21:51;16.10;89.40
69189;DHT22;56302;52.322;5.926;2022-07-22T00:24:17;16.00;89.10
69189;DHT22;56302;52.322;5.926;2022-07-22T00:26:42;16.10;88.70
69189;DHT22;56302;52.322;5.926;2022-07-22T00:29:08;16.10;89.10
69189;DHT22;56302;52.322;5.926;2022-07-22T00:31:34;16.10;88.90
69189;DHT22;56302;52.322;5.926;2022-07-22T00:34:00;16.10;88.70
69189;DHT22;56302;52.322;5.926;2022-07-22T00:36:27;16.10;88.60
69189;DHT22;56302;52.322;5.926;2022-07-22T00:38:56;16.10;88.50
69189;DHT22;56302;52.322;5.926;2022-07-22T00:41:30;16.10;88.60
69189;DHT22;56302;52.322;5.926;2022-07-22T00:44:02;16.10;88.40
69189;DHT22;56302;52.322;5.926;2022-07-22T00:46:30;16.10;88.70
69189;DHT22;56302;52.322;5.926;2022-07-22T00:48:56;16.10;88.60
69189;DHT22;56302;52.322;5.926;2022-07-22T00:51:23;16.10;88.60
69189;DHT22;56302;52.322;5.926;2022-07-22T00:53:50;16.10;88.50
69189;DHT22;56302;52.322;5.926;2022-07-22T00:56:17;16.10;88.70
69189;DHT22;56302;52.322;5.926;2022-07-22T00:58:44;16.10;88.50
69189;DHT22;56302;52.322;5.926;2022-07-22T01:01:09;16.10;88.40
69189;DHT22;56302;52.322;5.926;2022-07-22T01:03:35;16.10;88.40
69189;DHT22;56302;52.322;5.926;2022-07-22T01:06:01;16.10;88.60
69189;DHT22;56302;52.322;5.926;2022-07-22T01:08:27;16.10;88.70
69189;DHT22;56302;52.322;5.926;2022-07-22T01:10:52;16.10;88.50
69189;DHT22;56302;52.322;5.926;2022-07-22T01:13:18;16.10;88.50
69189;DHT22;56302;52.322;5.926;2022-07-22T01:15:43;16.00;88.60
69189;DHT22;56302;52.322;5.926;2022-07-22T01:18:09;16.00;88.70
69189;DHT22;56302;52.322;5.926;2022-07-22T01:20:35;16.00;88.70
69189;DHT22;56302;52.322;5.926;2022-07-22T01:23:01;15.90;89.40
69189;DHT22;56302;52.322;5.926;2022-07-22T01:25:26;15.90;89.40
69189;DHT22;56302;52.322;5.926;2022-07-22T01:27:52;16.00;89.10
69189;DHT22;56302;52.322;5.926;2022-07-22T01:30:18;16.00;88.80
69189;DHT22;56302;52.322;5.926;2022-07-22T01:32:44;16.00;88.60
69189;DHT22;56302;52.322;5.926;2022-07-22T01:35:09;16.00;88.30
69189;DHT22;56302;52.322;5.926;2022-07-22T01:37:35;16.00;88.60
69189;DHT22;56302;52.322;5.926;2022-07-22T01:40:00;16.00;88.40
69189;DHT22;56302;52.322;5.926;2022-07-22T01:42:26;16.00;88.40
69189;DHT22;56302;52.322;5.926;2022-07-22T01:44:53;15.90;89.10
69189;DHT22;56302;52.322;5.926;2022-07-22T01:47:18;15.90;89.30
69189;DHT22;56302;52.322;5.926;2022-07-22T01:49:44;15.90;89.60
69189;DHT22;56302;52.322;5.926;2022-07-22T01:52:10;15.90;89.90
69189;DHT22;56302;52.322;5.926;2022-07-22T01:54:35;15.90;89.60
69189;DHT22;56302;52.322;5.926;2022-07-22T01:57:02;15.90;89.50
69189;DHT22;56302;52.322;5.926;2022-07-22T01:59:27;16.00;89.20
69189;DHT22;56302;52.322;5.926;2022-07-22T02:01:53;16.00;89.40
69189;DHT22;56302;52.322;5.926;2022-07-22T02:04:19;16.00;88.90
69189;DHT22;56302;52.322;5.926;2022-07-22T02:06:44;15.90;89.30
69189;DHT22;56302;52.322;5.926;2022-07-22T02:09:10;15.90;89.30
69189;DHT22;56302;52.322;5.926;2022-07-22T02:11:36;15.90;89.10
69189;DHT22;56302;52.322;5.926;2022-07-22T02:14:01;15.90;89.30
69189;DHT22;56302;52.322;5.926;2022-07-22T02:16:27;15.90;90.00
69189;DHT22;56302;52.322;5.926;2022-07-22T02:18:53;15.90;89.30
69189;DHT22;56302;52.322;5.926;2022-07-22T02:21:19;15.90;88.90
69189;DHT22;56302;52.322;5.926;2022-07-22T02:23:44;15.90;89.10
69189;DHT22;56302;52.322;5.926;2022-07-22T02:26:10;15.90;88.80
69189;DHT22;56302;52.322;5.926;2022-07-22T02:28:35;15.90;88.90
69189;DHT22;56302;52.322;5.926;2022-07-22T02:31:01;15.90;89.20
69189;DHT22;56302;52.322;5.926;2022-07-22T02:33:27;15.80;90.10
69189;DHT22;56302;52.322;5.926;2022-07-22T02:35:55;15.80;89.40
69189;DHT22;56302;52.322;5.926;2022-07-22T02:38:20;15.90;89.00
69189;DHT22;56302;52.322;5.926;2022-07-22T02:40:46;15.90;88.70
69189;DHT22;56302;52.322;5.926;2022-07-22T02:43:11;15.80;89.60
69189;DHT22;56302;52.322;5.926;2022-07-22T02:45:37;15.80;89.90
69189;DHT22;56302;52.322;5.926;2022-07-22T02:48:02;15.80;89.90
69189;DHT22;56302;52.322;5.926;2022-07-22T02:50:28;15.80;89.80
69189;DHT22;56302;52.322;5.926;2022-07-22T02:52:54;15.80;89.20
69189;DHT22;56302;52.322;5.926;2022-07-22T02:55:19;15.80;89.00
69189;DHT22;56302;52.322;5.926;2022-07-22T02:57:45;15.70;90.40
69189;DHT22;56302;52.322;5.926;2022-07-22T03:00:11;15.70;90.30
69189;DHT22;56302;52.322;5.926;2022-07-22T03:02:38;15.70;89.90
69189;DHT22;56302;52.322;5.926;2022-07-22T03:05:05;15.80;89.60
69189;DHT22;56302;52.322;5.926;2022-07-22T03:07:31;15.80;88.90
69189;DHT22;56302;52.322;5.926;2022-07-22T03:09:57;15.80;88.90
69189;DHT22;56302;52.322;5.926;2022-07-22T03:12:22;15.80;89.50
69189;DHT22;56302;52.322;5.926;2022-07-22T03:14:49;15.80;89.40
69189;DHT22;56302;52.322;5.926;2022-07-22T03:17:14;15.80;89.70
69189;DHT22;56302;52.322;5.926;2022-07-22T03:19:40;15.70;89.60
69189;DHT22;56302;52.322;5.926;2022-07-22T03:22:05;15.70;89.40
69189;DHT22;56302;52.322;5.926;2022-07-22T03:24:31;15.70;89.30
69189;DHT22;56302;52.322;5.926;2022-07-22T03:26:57;15.70;89.20
69189;DHT22;56302;52.322;5.926;2022-07-22T03:29:22;15.70;89.40
69189;DHT22;56302;52.322;5.926;2022-07-22T03:31:48;15.70;89.60
69189;DHT22;56302;52.322;5.926;2022-07-22T03:34:13;15.70;89.50
69189;DHT22;56302;52.322;5.926;2022-07-22T03:36:39;15.70;89.50
69189;DHT22;56302;52.322;5.926;2022-07-22T03:39:04;15.70;89.30
69189;DHT22;56302;52.322;5.926;2022-07-22T03:41:30;15.70;89.70
69189;DHT22;56302;52.322;5.926;2022-07-22T03:43:56;15.70;89.60
69189;DHT22;56302;52.322;5.926;2022-07-22T03:46:21;15.80;89.30
69189;DHT22;56302;52.322;5.926;2022-07-22T03:48:47;15.80;89.30
69189;DHT22;56302;52.322;5.926;2022-07-22T03:51:13;15.80;89.20
69189;DHT22;56302;52.322;5.926;2022-07-22T03:53:38;15.80;89.20
69189;DHT22;56302;52.322;5.926;2022-07-22T03:56:05;15.80;89.20
69189;DHT22;56302;52.322;5.926;2022-07-22T03:58:30;15.80;89.10
69189;DHT22;56302;52.322;5.926;2022-07-22T04:00:56;15.80;89.10
69189;DHT22;56302;52.322;5.926;2022-07-22T04:03:21;15.80;89.20
69189;DHT22;56302;52.322;5.926;2022-07-22T04:05:47;15.80;89.10
69189;DHT22;56302;52.322;5.926;2022-07-22T04:08:13;15.80;89.10
69189;DHT22;56302;52.322;5.926;2022-07-22T04:10:38;15.80;89.30
69189;DHT22;56302;52.322;5.926;2022-07-22T04:13:04;15.80;89.20
69189;DHT22;56302;52.322;5.926;2022-07-22T04:15:30;15.80;89.00
69189;DHT22;56302;52.322;5.926;2022-07-22T04:17:56;15.80;89.00
69189;DHT22;56302;52.322;5.926;2022-07-22T04:20:22;15.80;89.10
69189;DHT22;56302;52.322;5.926;2022-07-22T04:22:47;15.80;89.00
69189;DHT22;56302;52.322;5.926;2022-07-22T04:25:13;15.80;89.00
69189;DHT22;56302;52.322;5.926;2022-07-22T04:27:39;15.80;89.00
69189;DHT22;56302;52.322;5.926;2022-07-22T04:30:06;15.70;89.00
69189;DHT22;56302;52.322;5.926;2022-07-22T04:32:31;15.70;89.30
69189;DHT22;56302;52.322;5.926;2022-07-22T04:34:57;15.80;89.10
69189;DHT22;56302;52.322;5.926;2022-07-22T04:37:22;15.80;89.00
69189;DHT22;56302;52.322;5.926;2022-07-22T04:39:48;15.80;89.00
69189;DHT22;56302;52.322;5.926;2022-07-22T04:42:13;15.70;89.20
69189;DHT22;56302;52.322;5.926;2022-07-22T04:44:39;15.60;89.40
69189;DHT22;56302;52.322;5.926;2022-07-22T04:47:04;15.70;89.10
69189;DHT22;56302;52.322;5.926;2022-07-22T04:49:30;15.70;89.00
69189;DHT22;56302;52.322;5.926;2022-07-22T04:51:55;15.70;89.50
69189;DHT22;56302;52.322;5.926;2022-07-22T04:54:21;15.70;89.40
69189;DHT22;56302;52.322;5.926;2022-07-22T04:56:46;15.70;89.20
69189;DHT22;56302;52.322;5.926;2022-07-22T04:59:12;15.80;89.10
69189;DHT22;56302;52.322;5.926;2022-07-22T05:01:38;15.80;88.70
69189;DHT22;56302;52.322;5.926;2022-07-22T05:04:03;15.80;88.90
69189;DHT22;56302;52.322;5.926;2022-07-22T05:06:29;15.80;88.70
69189;DHT22;56302;52.322;5.926;2022-07-22T05:08:55;15.80;88.70
69189;DHT22;56302;52.322;5.926;2022-07-22T05:11:21;15.70;89.00
69189;DHT22;56302;52.322;5.926;2022-07-22T05:13:46;15.70;89.30
69189;DHT22;56302;52.322;5.926;2022-07-22T05:16:12;15.70;89.30
69189;DHT22;56302;52.322;5.926;2022-07-22T05:18:37;15.70;89.90
69189;DHT22;56302;52.322;5.926;2022-07-22T05:21:04;15.50;91.00
69189;DHT22;56302;52.322;5.926;2022-07-22T05:23:30;15.50;91.40
69189;DHT22;56302;52.322;5.926;2022-07-22T05:25:56;15.60;91.10
69189;DHT22;56302;52.322;5.926;2022-07-22T05:28:21;15.50;91.30
69189;DHT22;56302;52.322;5.926;2022-07-22T05:30:47;15.60;90.60
69189;DHT22;56302;52.322;5.926;2022-07-22T05:33:13;15.60;90.60
69189;DHT22;56302;52.322;5.926;2022-07-22T05:35:38;15.60;90.20
69189;DHT22;56302;52.322;5.926;2022-07-22T05:38:04;15.60;90.40
69189;DHT22;56302;52.322;5.926;2022-07-22T05:40:31;15.70;90.10
69189;DHT22;56302;52.322;5.926;2022-07-22T05:42:57;15.70;89.80
69189;DHT22;56302;52.322;5.926;2022-07-22T05:45:23;15.80;89.40
69189;DHT22;56302;52.322;5.926;2022-07-22T05:47:48;15.80;89.20
69189;DHT22;56302;52.322;5.926;2022-07-22T05:50:14;15.90;88.80
69189;DHT22;56302;52.322;5.926;2022-07-22T05:52:39;15.90;88.70
69189;DHT22;56302;52.322;5.926;2022-07-22T05:55:06;15.90;88.70
69189;DHT22;56302;52.322;5.926;2022-07-22T05:57:32;15.90;88.40
69189;DHT22;56302;52.322;5.926;2022-07-22T05:59:58;15.90;88.70
69189;DHT22;56302;52.322;5.926;2022-07-22T06:02:23;15.90;89.00
69189;DHT22;56302;52.322;5.926;2022-07-22T06:04:49;15.90;88.80
69189;DHT22;56302;52.322;5.926;2022-07-22T06:07:15;16.00;88.50
69189;DHT22;56302;52.322;5.926;2022-07-22T06:09:40;15.90;88.90
69189;DHT22;56302;52.322;5.926;2022-07-22T06:12:06;16.00;88.80
69189;DHT22;56302;52.322;5.926;2022-07-22T06:14:31;16.00;88.70
69189;DHT22;56302;52.322;5.926;2022-07-22T06:16:57;15.90;89.00
69189;DHT22;56302;52.322;5.926;2022-07-22T06:19:23;15.90;89.00
69189;DHT22;56302;52.322;5.926;2022-07-22T06:21:49;16.00;88.90
69189;DHT22;56302;52.322;5.926;2022-07-22T06:24:15;16.00;88.60
69189;DHT22;56302;52.322;5.926;2022-07-22T06:26:41;16.10;88.60
69189;DHT22;56302;52.322;5.926;2022-07-22T06:29:06;16.10;88.30
69189;DHT22;56302;52.322;5.926;2022-07-22T06:31:32;16.00;88.50
69189;DHT22;56302;52.322;5.926;2022-07-22T06:33:58;16.00;88.70
69189;DHT22;56302;52.322;5.926;2022-07-22T06:36:23;16.10;88.60
69189;DHT22;56302;52.322;5.926;2022-07-22T06:38:49;16.10;88.80
69189;DHT22;56302;52.322;5.926;2022-07-22T06:41:14;16.10;88.40
69189;DHT22;56302;52.322;5.926;2022-07-22T06:43:43;16.20;88.20
69189;DHT22;56302;52.322;5.926;2022-07-22T06:46:09;16.20;88.10
69189;DHT22;56302;52.322;5.926;2022-07-22T06:48:34;16.20;88.00
69189;DHT22;56302;52.322;5.926;2022-07-22T06:51:00;16.10;88.20
69189;DHT22;56302;52.322;5.926;2022-07-22T06:53:25;16.10;88.90
69189;DHT22;56302;52.322;5.926;2022-07-22T06:55:51;16.10;88.50
69189;DHT22;56302;52.322;5.926;2022-07-22T06:58:17;16.10;88.50
69189;DHT22;56302;52.322;5.926;2022-07-22T07:00:42;16.20;88.10
69189;DHT22;56302;52.322;5.926;2022-07-22T07:03:08;16.40;87.90
69189;DHT22;56302;52.322;5.926;2022-07-22T07:05:33;16.40;87.70
69189;DHT22;56302;52.322;5.926;2022-07-22T07:07:59;16.50;87.40
69189;DHT22;56302;52.322;5.926;2022-07-22T07:10:24;16.50;87.20
69189;DHT22;56302;52.322;5.926;2022-07-22T07:12:53;16.60;87.00
69189;DHT22;56302;52.322;5.926;2022-07-22T07:15:20;16.60;86.70
69189;DHT22;56302;52.322;5.926;2022-07-22T07:17:45;16.60;86.80
69189;DHT22;56302;52.322;5.926;2022-07-22T07:20:11;16.70;86.60
69189;DHT22;56302;52.322;5.926;2022-07-22T07:22:36;16.70;86.30
69189;DHT22;56302;52.322;5.926;2022-07-22T07:25:04;16.70;86.00
69189;DHT22;56302;52.322;5.926;2022-07-22T07:27:30;16.80;86.20
69189;DHT22;56302;52.322;5.926;2022-07-22T07:29:55;16.80;85.80
69189;DHT22;56302;52.322;5.926;2022-07-22T07:32:21;16.80;85.80
69189;DHT22;56302;52.322;5.926;2022-07-22T07:34:47;16.90;85.90
69189;DHT22;56302;52.322;5.926;2022-07-22T07:37:12;16.90;84.70
69189;DHT22;56302;52.322;5.926;2022-07-22T07:39:38;16.80;84.80
69189;DHT22;56302;52.322;5.926;2022-07-22T07:42:04;16.90;85.10
69189;DHT22;56302;52.322;5.926;2022-07-22T07:44:29;16.90;84.80
69189;DHT22;56302;52.322;5.926;2022-07-22T07:46:55;17.00;85.10
69189;DHT22;56302;52.322;5.926;2022-07-22T07:49:20;17.00;84.90
69189;DHT22;56302;52.322;5.926;2022-07-22T07:51:46;17.00;83.00
69189;DHT22;56302;52.322;5.926;2022-07-22T07:54:11;17.00;83.70
69189;DHT22;56302;52.322;5.926;2022-07-22T07:56:37;16.80;81.30
69189;DHT22;56302;52.322;5.926;2022-07-22T07:59:03;16.80;82.80
69189;DHT22;56302;52.322;5.926;2022-07-22T08:01:28;17.00;83.80
69189;DHT22;56302;52.322;5.926;2022-07-22T08:03:54;17.10;82.20
69189;DHT22;56302;52.322;5.926;2022-07-22T08:06:19;17.20;81.50
69189;DHT22;56302;52.322;5.926;2022-07-22T08:08:45;17.20;81.40
69189;DHT22;56302;52.322;5.926;2022-07-22T08:11:11;17.30;79.10
69189;DHT22;56302;52.322;5.926;2022-07-22T08:13:36;17.30;79.30
69189;DHT22;56302;52.322;5.926;2022-07-22T08:16:03;17.40;80.90
69189;DHT22;56302;52.322;5.926;2022-07-22T08:18:29;17.40;78.60
69189;DHT22;56302;52.322;5.926;2022-07-22T08:20:55;17.40;81.90
69189;DHT22;56302;52.322;5.926;2022-07-22T08:23:20;17.40;77.30
69189;DHT22;56302;52.322;5.926;2022-07-22T08:25:46;17.40;77.90
69189;DHT22;56302;52.322;5.926;2022-07-22T08:28:11;17.40;79.40
69189;DHT22;56302;52.322;5.926;2022-07-22T08:30:37;17.50;78.30
69189;DHT22;56302;52.322;5.926;2022-07-22T08:33:04;17.40;78.70
69189;DHT22;56302;52.322;5.926;2022-07-22T08:35:30;17.40;78.60
69189;DHT22;56302;52.322;5.926;2022-07-22T08:37:55;17.40;78.70
69189;DHT22;56302;52.322;5.926;2022-07-22T08:40:21;17.40;79.40
69189;DHT22;56302;52.322;5.926;2022-07-22T08:42:48;17.50;78.70
69189;DHT22;56302;52.322;5.926;2022-07-22T08:45:15;17.40;78.60
69189;DHT22;56302;52.322;5.926;2022-07-22T08:47:44;17.30;80.30
69189;DHT22;56302;52.322;5.926;2022-07-22T08:50:10;17.50;79.10
69189;DHT22;56302;52.322;5.926;2022-07-22T08:52:36;17.50;79.40
69189;DHT22;56302;52.322;5.926;2022-07-22T08:55:06;17.50;80.00
69189;DHT22;56302;52.322;5.926;2022-07-22T08:57:32;17.60;79.90
69189;DHT22;56302;52.322;5.926;2022-07-22T08:59:59;17.60;79.90
69189;DHT22;56302;52.322;5.926;2022-07-22T09:02:26;17.70;79.10
69189;DHT22;56302;52.322;5.926;2022-07-22T09:05:03;17.60;78.40
69189;DHT22;56302;52.322;5.926;2022-07-22T09:07:31;17.60;78.10
69189;DHT22;56302;52.322;5.926;2022-07-22T09:09:58;17.50;77.70
69189;DHT22;56302;52.322;5.926;2022-07-22T09:12:25;17.50;78.40
69189;DHT22;56302;52.322;5.926;2022-07-22T09:14:55;17.40;78.90
69189;DHT22;56302;52.322;5.926;2022-07-22T09:17:26;17.20;79.10
69189;DHT22;56302;52.322;5.926;2022-07-22T09:19:54;17.00;80.00
69189;DHT22;56302;52.322;5.926;2022-07-22T09:22:39;17.10;79.80
69189;DHT22;56302;52.322;5.926;2022-07-22T09:27:52;17.10;81.00
69189;DHT22;56302;52.322;5.926;2022-07-22T09:30:23;17.30;81.10
69189;DHT22;56302;52.322;5.926;2022-07-22T09:32:49;17.30;80.50
69189;DHT22;56302;52.322;5.926;2022-07-22T09:35:15;17.20;80.60
69189;DHT22;56302;52.322;5.926;2022-07-22T09:37:49;17.10;80.40
69189;DHT22;56302;52.322;5.926;2022-07-22T09:40:18;17.10;79.50
69189;DHT22;56302;52.322;5.926;2022-07-22T09:43:05;17.10;79.50
69189;DHT22;56302;52.322;5.926;2022-07-22T09:45:32;17.10;80.20
69189;DHT22;56302;52.322;5.926;2022-07-22T09:48:00;17.10;79.60
69189;DHT22;56302;52.322;5.926;2022-07-22T09:50:28;17.20;79.10
69189;DHT22;56302;52.322;5.926;2022-07-22T09:52:56;17.30;79.90
69189;DHT22;56302;52.322;5.926;2022-07-22T09:55:24;17.50;79.00
69189;DHT22;56302;52.322;5.926;2022-07-22T09:57:52;17.50;79.00
69189;DHT22;56302;52.322;5.926;2022-07-22T10:00:23;17.40;78.40
69189;DHT22;56302;52.322;5.926;2022-07-22T10:03:00;17.40;77.20
69189;DHT22;56302;52.322;5.926;2022-07-22T10:05:30;17.40;78.50
69189;DHT22;56302;52.322;5.926;2022-07-22T10:07:57;17.50;77.50
69189;DHT22;56302;52.322;5.926;2022-07-22T10:10:25;17.50;77.00
69189;DHT22;56302;52.322;5.926;2022-07-22T10:12:53;17.50;77.20
69189;DHT22;56302;52.322;5.926;2022-07-22T10:15:21;17.60;75.50
69189;DHT22;56302;52.322;5.926;2022-07-22T10:17:49;17.60;76.20
69189;DHT22;56302;52.322;5.926;2022-07-22T10:20:20;17.70;76.80
69189;DHT22;56302;52.322;5.926;2022-07-22T10:22:54;17.60;74.80
69189;DHT22;56302;52.322;5.926;2022-07-22T10:25:23;17.70;76.20
69189;DHT22;56302;52.322;5.926;2022-07-22T10:27:54;17.70;75.20
69189;DHT22;56302;52.322;5.926;2022-07-22T10:30:23;17.80;75.40
69189;DHT22;56302;52.322;5.926;2022-07-22T10:33:16;17.70;74.40
69189;DHT22;56302;52.322;5.926;2022-07-22T10:36:02;17.80;75.80
69189;DHT22;56302;52.322;5.926;2022-07-22T10:38:29;17.80;76.30
69189;DHT22;56302;52.322;5.926;2022-07-22T10:41:04;17.80;75.00
69189;DHT22;56302;52.322;5.926;2022-07-22T10:43:46;17.80;75.40
69189;DHT22;56302;52.322;5.926;2022-07-22T10:46:12;17.90;74.00
69189;DHT22;56302;52.322;5.926;2022-07-22T10:51:07;17.90;74.00
69189;DHT22;56302;52.322;5.926;2022-07-22T10:53:40;18.00;73.70
69189;DHT22;56302;52.322;5.926;2022-07-22T10:56:14;18.10;72.10
69189;DHT22;56302;52.322;5.926;2022-07-22T10:58:42;18.10;73.20
69189;DHT22;56302;52.322;5.926;2022-07-22T11:01:11;18.20;71.90
69189;DHT22;56302;52.322;5.926;2022-07-22T11:03:40;18.20;72.70
69189;DHT22;56302;52.322;5.926;2022-07-22T11:06:21;18.30;71.60
69189;DHT22;56302;52.322;5.926;2022-07-22T11:08:50;18.30;71.10
69189;DHT22;56302;52.322;5.926;2022-07-22T11:11:16;18.30;71.30
69189;DHT22;56302;52.322;5.926;2022-07-22T11:13:43;18.20;72.40
69189;DHT22;56302;52.322;5.926;2022-07-22T11:16:26;18.30;71.10
69189;DHT22;56302;52.322;5.926;2022-07-22T11:21:24;18.40;73.30
69189;DHT22;56302;52.322;5.926;2022-07-22T11:23:52;18.40;72.40
69189;DHT22;56302;52.322;5.926;2022-07-22T11:26:32;18.30;71.00
69189;DHT22;56302;52.322;5.926;2022-07-22T11:28:58;18.30;70.20
69189;DHT22;56302;52.322;5.926;2022-07-22T11:31:25;18.40;70.30
69189;DHT22;56302;52.322;5.926;2022-07-22T11:33:51;18.50;70.90
69189;DHT22;56302;52.322;5.926;2022-07-22T11:36:16;18.60;69.30
69189;DHT22;56302;52.322;5.926;2022-07-22T11:38:47;18.70;69.10
69189;DHT22;56302;52.322;5.926;2022-07-22T11:41:14;18.70;68.70
69189;DHT22;56302;52.322;5.926;2022-07-22T11:43:44;18.80;69.60
69189;DHT22;56302;52.322;5.926;2022-07-22T11:46:10;18.90;70.10
69189;DHT22;56302;52.322;5.926;2022-07-22T11:48:36;19.10;69.10
69189;DHT22;56302;52.322;5.926;2022-07-22T11:51:04;19.20;69.20
69189;DHT22;56302;52.322;5.926;2022-07-22T11:53:29;19.20;69.50
69189;DHT22;56302;52.322;5.926;2022-07-22T11:56:03;19.30;68.20
69189;DHT22;56302;52.322;5.926;2022-07-22T11:58:45;19.40;67.50
69189;DHT22;56302;52.322;5.926;2022-07-22T12:01:13;19.30;67.90
69189;DHT22;56302;52.322;5.926;2022-07-22T12:03:41;19.60;68.50
69189;DHT22;56302;52.322;5.926;2022-07-22T12:06:11;19.80;65.80
69189;DHT22;56302;52.322;5.926;2022-07-22T12:08:46;19.80;66.50
69189;DHT22;56302;52.322;5.926;2022-07-22T12:11:13;19.90;65.10
69189;DHT22;56302;52.322;5.926;2022-07-22T12:13:44;19.90;67.10
69189;DHT22;56302;52.322;5.926;2022-07-22T12:16:26;20.10;66.00
69189;DHT22;56302;52.322;5.926;2022-07-22T12:18:57;20.30;64.20
69189;DHT22;56302;52.322;5.926;2022-07-22T12:21:25;20.40;64.50
69189;DHT22;56302;52.322;5.926;2022-07-22T12:23:53;20.60;62.80
69189;DHT22;56302;52.322;5.926;2022-07-22T12:26:19;20.60;65.50
69189;DHT22;56302;52.322;5.926;2022-07-22T12:31:46;20.30;63.40
69189;DHT22;56302;52.322;5.926;2022-07-22T12:34:13;20.20;65.40
69189;DHT22;56302;52.322;5.926;2022-07-22T12:36:46;20.20;65.80
69189;DHT22;56302;52.322;5.926;2022-07-22T12:39:14;20.20;67.30
69189;DHT22;56302;52.322;5.926;2022-07-22T12:41:50;20.30;64.70
69189;DHT22;56302;52.322;5.926;2022-07-22T12:44:18;20.20;65.70
69189;DHT22;56302;52.322;5.926;2022-07-22T12:46:46;20.20;66.50
69189;DHT22;56302;52.322;5.926;2022-07-22T12:49:12;20.30;65.50
69189;DHT22;56302;52.322;5.926;2022-07-22T12:51:37;20.30;65.00
69189;DHT22;56302;52.322;5.926;2022-07-22T12:54:03;20.30;65.20
69189;DHT22;56302;52.322;5.926;2022-07-22T12:56:28;20.40;65.60
69189;DHT22;56302;52.322;5.926;2022-07-22T12:58:54;20.30;62.50
69189;DHT22;56302;52.322;5.926;2022-07-22T13:01:19;20.20;63.10
69189;DHT22;56302;52.322;5.926;2022-07-22T13:03:45;20.20;63.40
69189;DHT22;56302;52.322;5.926;2022-07-22T13:06:10;20.20;66.40
69189;DHT22;56302;52.322;5.926;2022-07-22T13:08:36;20.40;63.20
69189;DHT22;56302;52.322;5.926;2022-07-22T13:11:02;20.40;63.40
69189;DHT22;56302;52.322;5.926;2022-07-22T13:13:28;20.30;63.00
69189;DHT22;56302;52.322;5.926;2022-07-22T13:15:54;20.50;66.90
69189;DHT22;56302;52.322;5.926;2022-07-22T13:18:20;20.60;66.60
69189;DHT22;56302;52.322;5.926;2022-07-22T13:20:45;20.80;64.00
69189;DHT22;56302;52.322;5.926;2022-07-22T13:23:12;20.60;64.70
69189;DHT22;56302;52.322;5.926;2022-07-22T13:25:38;20.80;64.30
69189;DHT22;56302;52.322;5.926;2022-07-22T13:28:03;20.80;60.10
69189;DHT22;56302;52.322;5.926;2022-07-22T13:30:29;20.70;63.90
69189;DHT22;56302;52.322;5.926;2022-07-22T13:32:54;20.60;62.50
69189;DHT22;56302;52.322;5.926;2022-07-22T13:35:20;20.60;62.60
69189;DHT22;56302;52.322;5.926;2022-07-22T13:37:46;20.50;63.50
69189;DHT22;56302;52.322;5.926;2022-07-22T13:40:13;20.50;62.50
69189;DHT22;56302;52.322;5.926;2022-07-22T13:42:39;20.60;61.40
69189;DHT22;56302;52.322;5.926;2022-07-22T13:45:05;20.60;64.50
69189;DHT22;56302;52.322;5.926;2022-07-22T13:47:31;20.60;62.80
69189;DHT22;56302;52.322;5.926;2022-07-22T13:49:57;20.80;63.90
69189;DHT22;56302;52.322;5.926;2022-07-22T13:52:23;20.70;63.10
69189;DHT22;56302;52.322;5.926;2022-07-22T13:54:49;20.70;63.60
69189;DHT22;56302;52.322;5.926;2022-07-22T13:57:15;20.70;63.90
69189;DHT22;56302;52.322;5.926;2022-07-22T13:59:41;20.80;64.60
69189;DHT22;56302;52.322;5.926;2022-07-22T14:02:07;20.70;64.40
69189;DHT22;56302;52.322;5.926;2022-07-22T14:04:33;20.50;65.10
69189;DHT22;56302;52.322;5.926;2022-07-22T14:06:58;20.50;64.90
69189;DHT22;56302;52.322;5.926;2022-07-22T14:09:24;20.40;65.40
69189;DHT22;56302;52.322;5.926;2022-07-22T14:11:49;20.40;65.50
69189;DHT22;56302;52.322;5.926;2022-07-22T14:14:15;20.40;64.90
69189;DHT22;56302;52.322;5.926;2022-07-22T14:16:41;20.40;64.30
69189;DHT22;56302;52.322;5.926;2022-07-22T14:19:09;20.50;64.80
69189;DHT22;56302;52.322;5.926;2022-07-22T14:21:36;20.60;64.80
69189;DHT22;56302;52.322;5.926;2022-07-22T14:24:02;20.70;65.20
69189;DHT22;56302;52.322;5.926;2022-07-22T14:26:29;20.60;65.00
69189;DHT22;56302;52.322;5.926;2022-07-22T14:28:54;20.50;65.70
69189;DHT22;56302;52.322;5.926;2022-07-22T14:31:20;20.50;65.30
69189;DHT22;56302;52.322;5.926;2022-07-22T14:33:48;20.50;64.90
69189;DHT22;56302;52.322;5.926;2022-07-22T14:36:14;20.20;63.10
69189;DHT22;56302;52.322;5.926;2022-07-22T14:38:39;19.90;66.90
69189;DHT22;56302;52.322;5.926;2022-07-22T14:41:05;20.20;67.10
69189;DHT22;56302;52.322;5.926;2022-07-22T14:43:33;20.30;66.50
69189;DHT22;56302;52.322;5.926;2022-07-22T14:45:59;20.40;65.70
69189;DHT22;56302;52.322;5.926;2022-07-22T14:48:25;20.40;65.80
69189;DHT22;56302;52.322;5.926;2022-07-22T14:50:50;20.20;65.90
69189;DHT22;56302;52.322;5.926;2022-07-22T14:53:16;20.10;67.00
69189;DHT22;56302;52.322;5.926;2022-07-22T14:55:42;20.00;66.40
69189;DHT22;56302;52.322;5.926;2022-07-22T14:58:08;19.90;64.80
69189;DHT22;56302;52.322;5.926;2022-07-22T15:00:33;20.00;66.10
69189;DHT22;56302;52.322;5.926;2022-07-22T15:02:59;20.30;67.00
69189;DHT22;56302;52.322;5.926;2022-07-22T15:05:24;20.40;65.10
69189;DHT22;56302;52.322;5.926;2022-07-22T15:07:50;20.40;63.90
69189;DHT22;56302;52.322;5.926;2022-07-22T15:10:16;20.30;65.90
69189;DHT22;56302;52.322;5.926;2022-07-22T15:12:41;20.30;65.70
69189;DHT22;56302;52.322;5.926;2022-07-22T15:15:07;20.30;65.50
69189;DHT22;56302;52.322;5.926;2022-07-22T15:17:36;20.30;65.70
69189;DHT22;56302;52.322;5.926;2022-07-22T15:20:02;20.30;66.00
69189;DHT22;56302;52.322;5.926;2022-07-22T15:22:28;20.30;63.60
69189;DHT22;56302;52.322;5.926;2022-07-22T15:24:55;20.20;64.60
69189;DHT22;56302;52.322;5.926;2022-07-22T15:27:20;20.20;65.20
69189;DHT22;56302;52.322;5.926;2022-07-22T15:29:46;20.20;64.90
69189;DHT22;56302;52.322;5.926;2022-07-22T15:32:16;20.10;63.30
69189;DHT22;56302;52.322;5.926;2022-07-22T15:34:42;20.20;64.90
69189;DHT22;56302;52.322;5.926;2022-07-22T15:37:08;20.30;65.60
69189;DHT22;56302;52.322;5.926;2022-07-22T15:39:34;20.40;64.90